New Marlborough, Massachusetts
Current Conditions -  °F | °C
As of 4:54 AM on Friday 24 Oct 2014 (Local Time) from KPSF Reporting Station
Light Rain Light Rain  
Wind Chill: 38°   Ceiling: 900
Heat Index: 43°   Visibility: 10mi
Dew Point: 41°   Wind: 8mph
Humidity: 93%   Direction: 330°NNW
Pressure: 29.76"   Gusts: NA
Location:  42.1779°N, 73.3332°W
Report Text: KPSF 240854Z AUTO 33007KT 10SM -RA BKN009 OVC014 06/05 A2976 RMK AO2 CIG 007V012 SLP074 P0002 60004 T00610050 55002
Loading
Personal Weather Stations






























Interactive Weather Map
Tropical Storm Tracking
New forecast layout! Learn more

10-Day Weather Forecast

Advertisements
Track Severe Weather on mobile